Time;durP1;ratioP1;P1;durP2;ratioP2;P2;SDS_P1;SDS_P2;PMS_P1;PMS_P2;Temp;Humidity;BMP_temperature;BMP_pressure;BME280_temperature;BME280_humidity;BME280_pressure;Samples;Min_cycle;Max_cycle;Signal;HPM_P1;HPM_P2
2021/12/09 00:01:04;;;;;;;;;;;2.90;99.90;;;;;;5039263;28;19964;-81
2021/12/09 00:03:31;;;;;;;;;;;2.90;99.90;;;;;;5065157;28;20457;-81
2021/12/09 00:05:58;;;;;;;;;;;2.80;99.90;;;;;;5040085;28;20007;-81
2021/12/09 00:08:25;;;;;;;;;;;2.80;99.90;;;;;;5016389;28;19946;-81
2021/12/09 00:10:52;;;;;;;;;;;2.80;99.90;;;;;;5038338;28;19924;-81
2021/12/09 00:13:20;;;;;;;;;;;2.70;99.90;;;;;;5070545;28;20344;-81
2021/12/09 00:15:45;;;;;;;;;;;2.70;99.90;;;;;;5057021;28;19928;-81
2021/12/09 00:18:11;;;;;;;;;;;2.60;99.90;;;;;;5057386;28;20418;-81
2021/12/09 00:20:36;;;;;;;;;;;2.60;99.90;;;;;;5056702;28;19925;-81
2021/12/09 00:23:02;;;;;;;;;;;2.60;99.90;;;;;;5056220;28;19924;-81
2021/12/09 00:25:28;;;;;;;;;;;2.60;99.90;;;;;;5033583;28;19927;-82
2021/12/09 00:27:53;;;;;;;;;;;2.50;99.90;;;;;;5056359;28;20439;-81
2021/12/09 00:30:21;;;;;;;;;;;2.50;99.90;;;;;;5052624;28;20175;-81
2021/12/09 00:32:46;;;;;;;;;;;2.50;99.90;;;;;;5069721;28;19956;-81
2021/12/09 00:35:16;;;;;;;;;;;2.50;99.90;;;;;;5069506;28;20393;-81
2021/12/09 00:38:07;;;;;;;;;;;2.40;99.90;;;;;;5056890;28;19920;-81
2021/12/09 00:40:28;;;;;;;;;;;2.40;99.90;;;;;;5052306;28;19927;-81
2021/12/09 00:42:53;;;;;;;;;;;2.40;99.90;;;;;;5074797;28;19925;-81
2021/12/09 00:45:21;;;;;;;;;;;2.50;99.90;;;;;;5047239;28;19999;-81
2021/12/09 00:47:47;;;;;;;;;;;2.50;99.90;;;;;;5073456;28;20394;-81
2021/12/09 00:50:13;;;;;;;;;;;2.50;99.90;;;;;;5054439;28;19927;-81
2021/12/09 00:52:39;;;;;;;;;;;2.50;99.90;;;;;;5055526;28;19948;-81
2021/12/09 00:55:05;;;;;;;;;;;2.50;99.90;;;;;;5055806;28;19920;-81
2021/12/09 00:57:31;;;;;;;;;;;2.50;99.90;;;;;;5038448;28;19924;-81
2021/12/09 00:59:58;;;;;;;;;;;2.40;99.90;;;;;;5062924;28;19921;-81
2021/12/09 01:02:25;;;;;;;;;;;2.40;99.90;;;;;;5032616;28;20287;-81
2021/12/09 01:04:51;;;;;;;;;;;2.40;99.90;;;;;;5040130;28;20386;-81
2021/12/09 01:07:17;;;;;;;;;;;2.40;99.90;;;;;;5067683;28;20024;-81
2021/12/09 01:09:43;;;;;;;;;;;2.40;99.90;;;;;;5029701;28;20382;-81
2021/12/09 01:12:09;;;;;;;;;;;2.40;99.90;;;;;;5066696;28;19924;-81
2021/12/09 01:14:37;;;;;;;;;;;2.40;99.90;;;;;;5069067;28;19991;-81
2021/12/09 01:17:03;;;;;;;;;;;2.50;99.90;;;;;;5049089;28;19927;-81
2021/12/09 01:19:30;;;;;;;;;;;2.50;99.90;;;;;;5060905;28;19921;-81
2021/12/09 01:21:55;;;;;;;;;;;2.50;99.90;;;;;;5048473;28;19958;-81
2021/12/09 01:24:21;;;;;;;;;;;2.50;99.90;;;;;;5049792;28;19933;-81
2021/12/09 01:26:48;;;;;;;;;;;2.50;99.90;;;;;;5041257;28;20282;-81
2021/12/09 01:29:18;;;;;;;;;;;2.50;99.90;;;;;;5037831;28;19920;-81
2021/12/09 01:31:53;;;;;;;;;;;2.50;99.90;;;;;;5035794;28;20000;-81
2021/12/09 01:34:20;;;;;;;;;;;2.50;99.90;;;;;;5052025;28;19920;-82
2021/12/09 01:36:49;;;;;;;;;;;2.50;99.90;;;;;;5038680;28;19928;-81
2021/12/09 01:39:16;;;;;;;;;;;2.50;99.90;;;;;;5055636;28;19930;-81
2021/12/09 01:41:41;;;;;;;;;;;2.50;99.90;;;;;;5071732;28;19925;-81
2021/12/09 01:44:07;;;;;;;;;;;2.50;99.90;;;;;;5055440;28;19951;-81
2021/12/09 01:46:33;;;;;;;;;;;2.60;99.90;;;;;;5039476;28;19920;-81
2021/12/09 01:48:58;;;;;;;;;;;2.50;99.90;;;;;;5036278;28;19944;-81
2021/12/09 01:51:24;;;;;;;;;;;2.50;99.90;;;;;;5046775;28;19932;-81
2021/12/09 01:53:52;;;;;;;;;;;2.50;99.90;;;;;;5038291;28;19924;-81
2021/12/09 01:56:21;;;;;;;;;;;2.60;99.90;;;;;;5055407;28;20458;-81
2021/12/09 01:58:46;;;;;;;;;;;2.40;99.90;;;;;;5070981;28;20018;-81
2021/12/09 02:01:12;;;;;;;;;;;2.50;99.90;;;;;;5038720;28;19970;-81
2021/12/09 02:03:37;;;;;;;;;;;2.40;99.90;;;;;;5053412;28;19931;-81
2021/12/09 02:06:03;;;;;;;;;;;2.40;99.90;;;;;;5040156;28;19967;-81
2021/12/09 02:08:29;;;;;;;;;;;2.50;99.90;;;;;;5070117;28;19960;-81
2021/12/09 02:10:56;;;;;;;;;;;2.50;99.90;;;;;;5056827;28;20007;-82
2021/12/09 02:13:22;;;;;;;;;;;2.50;99.90;;;;;;5055237;28;19928;-81
2021/12/09 02:15:48;;;;;;;;;;;2.40;99.90;;;;;;5055199;28;20018;-81
2021/12/09 02:18:14;;;;;;;;;;;2.40;99.90;;;;;;5067090;28;19920;-81
2021/12/09 02:20:41;;;;;;;;;;;2.40;99.90;;;;;;5050702;28;20298;-81
2021/12/09 02:23:10;;;;;;;;;;;2.40;99.90;;;;;;5049750;28;20006;-81
2021/12/09 02:25:36;;;;;;;;;;;2.40;99.90;;;;;;5028464;28;19967;-81
2021/12/09 02:28:02;;;;;;;;;;;2.30;99.90;;;;;;5048649;28;20007;-81
2021/12/09 02:30:28;;;;;;;;;;;2.30;99.90;;;;;;5067808;28;20007;-81
2021/12/09 02:32:54;;;;;;;;;;;2.30;99.90;;;;;;5058556;28;19920;-81
2021/12/09 02:35:19;;;;;;;;;;;2.30;99.90;;;;;;5055063;28;20016;-81
2021/12/09 02:37:46;;;;;;;;;;;2.30;99.90;;;;;;5056576;28;19976;-81
2021/12/09 02:40:13;;;;;;;;;;;2.30;99.90;;;;;;5040189;28;19924;-81
2021/12/09 02:42:38;;;;;;;;;;;2.20;99.90;;;;;;5056682;28;19930;-81
2021/12/09 02:45:05;;;;;;;;;;;2.20;99.90;;;;;;5051933;28;19920;-81
2021/12/09 02:47:31;;;;;;;;;;;2.20;99.90;;;;;;5038680;28;20016;-81
2021/12/09 02:49:57;;;;;;;;;;;2.20;99.90;;;;;;5074399;28;20496;-81
2021/12/09 02:52:22;;;;;;;;;;;2.10;99.90;;;;;;5058720;28;19920;-81
2021/12/09 02:54:49;;;;;;;;;;;2.10;99.90;;;;;;5041582;28;19921;-81
2021/12/09 02:57:15;;;;;;;;;;;2.10;99.90;;;;;;5049162;28;19924;-81
2021/12/09 02:59:40;;;;;;;;;;;2.10;99.90;;;;;;5056529;28;19987;-81
2021/12/09 03:02:07;;;;;;;;;;;2.10;99.90;;;;;;5058460;28;19962;-81
2021/12/09 03:04:38;;;;;;;;;;;2.00;99.90;;;;;;5056220;28;19924;-81
2021/12/09 03:07:04;;;;;;;;;;;2.00;99.90;;;;;;5046777;28;19927;-81
2021/12/09 03:09:29;;;;;;;;;;;2.00;99.90;;;;;;5038106;28;19920;-81
2021/12/09 03:12:03;;;;;;;;;;;2.00;99.90;;;;;;5049650;28;19927;-81
2021/12/09 03:14:28;;;;;;;;;;;2.00;99.90;;;;;;5075359;28;19935;-81
2021/12/09 03:16:54;;;;;;;;;;;2.00;99.90;;;;;;5073697;28;19920;-81
2021/12/09 03:19:20;;;;;;;;;;;2.00;99.90;;;;;;5053589;28;19920;-81
2021/12/09 03:21:46;;;;;;;;;;;1.90;99.90;;;;;;5057207;28;19930;-81
2021/12/09 03:24:13;;;;;;;;;;;1.90;99.90;;;;;;5036531;28;19937;-81
2021/12/09 03:26:40;;;;;;;;;;;1.90;99.90;;;;;;5065994;28;19927;-81
2021/12/09 03:29:08;;;;;;;;;;;1.90;99.90;;;;;;5051671;28;19920;-81
2021/12/09 03:31:35;;;;;;;;;;;2.00;99.90;;;;;;5066562;28;19959;-81
2021/12/09 03:34:01;;;;;;;;;;;2.00;99.90;;;;;;5073560;28;20575;-80
2021/12/09 03:36:28;;;;;;;;;;;1.90;99.90;;;;;;5055233;28;19921;-81
2021/12/09 03:38:54;;;;;;;;;;;2.00;99.90;;;;;;5053941;28;20378;-81
2021/12/09 03:41:20;;;;;;;;;;;2.00;99.90;;;;;;5069647;28;19967;-81
2021/12/09 03:43:45;;;;;;;;;;;1.90;99.90;;;;;;5064947;28;19931;-81
2021/12/09 03:46:12;;;;;;;;;;;2.00;99.90;;;;;;5052278;28;20278;-81
2021/12/09 03:48:38;;;;;;;;;;;2.00;99.90;;;;;;5024201;28;20346;-81
2021/12/09 03:51:03;;;;;;;;;;;1.90;99.90;;;;;;5058389;28;19970;-81
2021/12/09 03:53:29;;;;;;;;;;;1.90;99.90;;;;;;5074640;28;19944;-81
2021/12/09 03:55:55;;;;;;;;;;;2.00;99.90;;;;;;5039816;28;19920;-81
2021/12/09 03:58:20;;;;;;;;;;;1.90;99.90;;;;;;5046533;28;19950;-81
2021/12/09 04:00:46;;;;;;;;;;;1.90;99.90;;;;;;5057854;28;20409;-81
2021/12/09 04:03:16;;;;;;;;;;;1.90;99.90;;;;;;5044275;28;19975;-81
2021/12/09 04:05:42;;;;;;;;;;;1.90;99.90;;;;;;5056958;28;20309;-81
2021/12/09 04:08:07;;;;;;;;;;;2.00;99.90;;;;;;5073136;28;19921;-81
2021/12/09 04:10:33;;;;;;;;;;;1.90;99.90;;;;;;5056847;28;20413;-81
2021/12/09 04:12:59;;;;;;;;;;;1.90;99.90;;;;;;5074972;28;20390;-81
2021/12/09 04:15:25;;;;;;;;;;;1.90;99.90;;;;;;5057522;28;20297;-81
2021/12/09 04:17:51;;;;;;;;;;;1.90;99.90;;;;;;5072661;28;19920;-81
2021/12/09 04:20:18;;;;;;;;;;;1.80;99.90;;;;;;5048599;28;19974;-81
2021/12/09 04:22:48;;;;;;;;;;;1.80;99.90;;;;;;5049667;28;19967;-81
2021/12/09 04:25:14;;;;;;;;;;;1.80;99.90;;;;;;5056713;28;20386;-81
2021/12/09 04:27:40;;;;;;;;;;;1.80;99.90;;;;;;5056770;28;19927;-81
2021/12/09 04:30:06;;;;;;;;;;;1.80;99.90;;;;;;5035923;28;20310;-81
2021/12/09 04:32:31;;;;;;;;;;;1.80;99.90;;;;;;5041324;28;20003;-81
2021/12/09 04:34:57;;;;;;;;;;;1.70;99.90;;;;;;5069832;28;20329;-81
2021/12/09 04:37:24;;;;;;;;;;;1.70;99.90;;;;;;5049155;28;19920;-81
2021/12/09 04:39:49;;;;;;;;;;;1.70;99.90;;;;;;5054094;28;19933;-80
2021/12/09 04:42:15;;;;;;;;;;;1.70;99.90;;;;;;5048721;28;19995;-81
2021/12/09 04:44:41;;;;;;;;;;;1.60;99.90;;;;;;5070002;28;19928;-81
2021/12/09 04:47:06;;;;;;;;;;;1.60;99.90;;;;;;5073269;28;19920;-81
2021/12/09 04:49:32;;;;;;;;;;;1.60;99.90;;;;;;5055485;28;19936;-81
2021/12/09 04:52:00;;;;;;;;;;;1.60;99.90;;;;;;5048173;28;19920;-81
2021/12/09 04:54:27;;;;;;;;;;;1.50;99.90;;;;;;5056325;28;19928;-81
2021/12/09 04:56:52;;;;;;;;;;;1.50;99.90;;;;;;5055992;28;19976;-81
2021/12/09 04:59:18;;;;;;;;;;;1.50;99.90;;;;;;5031674;28;19928;-81
2021/12/09 05:01:48;;;;;;;;;;;1.40;99.90;;;;;;5055437;28;20329;-81
2021/12/09 05:04:14;;;;;;;;;;;1.40;99.90;;;;;;5030011;28;19932;-81
2021/12/09 05:06:40;;;;;;;;;;;1.40;99.90;;;;;;5070276;28;19920;-81
2021/12/09 05:09:10;;;;;;;;;;;1.40;99.90;;;;;;5055808;28;20007;-80
2021/12/09 05:14:03;;;;;;;;;;;1.40;99.90;;;;;;5054666;28;19924;-81
2021/12/09 05:16:29;;;;;;;;;;;1.40;99.90;;;;;;5052606;28;19920;-81
2021/12/09 05:18:58;;;;;;;;;;;1.40;99.90;;;;;;5055422;28;19920;-81
2021/12/09 05:21:25;;;;;;;;;;;1.40;99.90;;;;;;5056380;28;19920;-81
2021/12/09 05:23:50;;;;;;;;;;;1.50;99.90;;;;;;5054648;28;20386;-81
2021/12/09 05:26:18;;;;;;;;;;;1.40;99.90;;;;;;5050546;28;20011;-81
2021/12/09 05:28:52;;;;;;;;;;;1.50;99.90;;;;;;5052220;28;19927;-81
2021/12/09 05:34:02;;;;;;;;;;;1.50;99.90;;;;;;5060766;28;19932;-81
2021/12/09 05:36:27;;;;;;;;;;;1.50;99.90;;;;;;5035155;28;19920;-81
2021/12/09 05:38:53;;;;;;;;;;;1.50;99.90;;;;;;5030579;28;19920;-81
2021/12/09 05:41:19;;;;;;;;;;;1.50;99.90;;;;;;5030779;28;20367;-81
2021/12/09 05:43:45;;;;;;;;;;;1.50;99.90;;;;;;5027143;28;19925;-81
2021/12/09 05:46:11;;;;;;;;;;;1.50;99.90;;;;;;5066403;28;19936;-81
2021/12/09 05:48:39;;;;;;;;;;;1.50;99.90;;;;;;5037530;28;19924;-81
2021/12/09 05:51:04;;;;;;;;;;;1.50;99.90;;;;;;5055679;28;20357;-81
2021/12/09 05:53:30;;;;;;;;;;;1.50;99.90;;;;;;5052523;28;19999;-80
2021/12/09 05:55:56;;;;;;;;;;;1.50;99.90;;;;;;5065131;28;20366;-81
2021/12/09 05:58:24;;;;;;;;;;;1.50;99.90;;;;;;5062723;28;19982;-81
2021/12/09 06:00:53;;;;;;;;;;;1.50;99.90;;;;;;5072446;28;19921;-81
2021/12/09 06:03:21;;;;;;;;;;;1.50;99.90;;;;;;5040567;28;19932;-81
2021/12/09 06:05:48;;;;;;;;;;;1.50;99.90;;;;;;5071756;28;19921;-81
2021/12/09 06:08:14;;;;;;;;;;;1.50;99.90;;;;;;5037728;28;19921;-81
2021/12/09 06:10:39;;;;;;;;;;;1.50;99.90;;;;;;5036029;28;20027;-81
2021/12/09 06:13:05;;;;;;;;;;;1.40;99.90;;;;;;5038463;28;19943;-81
2021/12/09 06:15:31;;;;;;;;;;;1.40;99.90;;;;;;5055142;28;19957;-80
2021/12/09 06:17:58;;;;;;;;;;;1.40;99.90;;;;;;5055082;28;19975;-81
2021/12/09 06:20:24;;;;;;;;;;;1.40;99.90;;;;;;5054186;28;20361;-81
2021/12/09 06:22:49;;;;;;;;;;;1.40;99.90;;;;;;5066773;28;20339;-80
2021/12/09 06:25:18;;;;;;;;;;;1.40;99.90;;;;;;5044662;28;20042;-81
2021/12/09 06:27:44;;;;;;;;;;;1.40;99.90;;;;;;5071155;28;19920;-81
2021/12/09 06:30:10;;;;;;;;;;;1.30;99.90;;;;;;5071926;28;19988;-81
2021/12/09 06:32:36;;;;;;;;;;;1.30;99.90;;;;;;5038151;28;20449;-81
2021/12/09 06:35:04;;;;;;;;;;;1.30;99.90;;;;;;5042639;28;19931;-80
2021/12/09 06:37:30;;;;;;;;;;;1.30;99.90;;;;;;5046123;28;19971;-80
2021/12/09 06:39:55;;;;;;;;;;;1.30;99.90;;;;;;5029694;28;19921;-81
2021/12/09 06:42:21;;;;;;;;;;;1.20;99.90;;;;;;5036054;28;20500;-81
2021/12/09 06:44:46;;;;;;;;;;;1.20;99.90;;;;;;5041440;28;19933;-81
2021/12/09 06:47:12;;;;;;;;;;;1.20;99.90;;;;;;5044966;28;20434;-81
2021/12/09 06:49:38;;;;;;;;;;;1.20;99.90;;;;;;5050587;28;19943;-81
2021/12/09 06:52:05;;;;;;;;;;;1.10;99.90;;;;;;5071539;28;19960;-81
2021/12/09 06:54:32;;;;;;;;;;;1.10;99.90;;;;;;5040127;28;19933;-81
2021/12/09 06:56:58;;;;;;;;;;;1.10;99.90;;;;;;5060966;28;19927;-81
2021/12/09 06:59:23;;;;;;;;;;;1.10;99.90;;;;;;5046768;28;19920;-81
2021/12/09 07:01:49;;;;;;;;;;;1.10;99.90;;;;;;5064570;28;20386;-81
2021/12/09 07:04:14;;;;;;;;;;;1.10;99.90;;;;;;5048446;28;19928;-81
2021/12/09 07:06:40;;;;;;;;;;;1.10;99.90;;;;;;5054335;28;20957;-82
2021/12/09 07:09:07;;;;;;;;;;;1.00;99.90;;;;;;5028984;28;19924;-81
2021/12/09 07:11:33;;;;;;;;;;;1.10;99.90;;;;;;5032315;28;20361;-81
2021/12/09 07:13:59;;;;;;;;;;;1.00;99.90;;;;;;5048403;28;19933;-81
2021/12/09 07:16:25;;;;;;;;;;;1.10;99.90;;;;;;5052242;28;20361;-81
2021/12/09 07:18:51;;;;;;;;;;;1.10;99.90;;;;;;5073426;28;19959;-81
2021/12/09 07:21:17;;;;;;;;;;;1.10;99.90;;;;;;5055369;28;19921;-81
2021/12/09 07:23:42;;;;;;;;;;;1.00;99.90;;;;;;5055148;28;20022;-81
2021/12/09 07:26:09;;;;;;;;;;;1.10;99.90;;;;;;5056129;28;20015;-80
2021/12/09 07:28:35;;;;;;;;;;;1.10;99.90;;;;;;5072994;28;20000;-81
2021/12/09 07:31:01;;;;;;;;;;;1.00;99.90;;;;;;5053506;28;19924;-81
2021/12/09 07:33:26;;;;;;;;;;;1.00;99.90;;;;;;5039005;28;19921;-81
2021/12/09 07:35:52;;;;;;;;;;;1.00;99.90;;;;;;5055176;28;19921;-81
2021/12/09 07:38:18;;;;;;;;;;;1.00;99.90;;;;;;5053455;28;19924;-81
2021/12/09 07:40:44;;;;;;;;;;;1.20;99.90;;;;;;5054366;28;20422;-81
2021/12/09 07:43:10;;;;;;;;;;;1.10;99.90;;;;;;5072355;28;19925;-81
2021/12/09 07:45:36;;;;;;;;;;;1.10;99.90;;;;;;5054713;28;20671;-80
2021/12/09 07:48:02;;;;;;;;;;;1.20;99.90;;;;;;5038759;28;20007;-80
2021/12/09 07:50:29;;;;;;;;;;;1.20;99.90;;;;;;5039263;28;19931;-80
2021/12/09 07:52:55;;;;;;;;;;;1.20;99.90;;;;;;5067893;28;19925;-81
2021/12/09 07:55:22;;;;;;;;;;;1.20;99.90;;;;;;5055608;28;20409;-81
2021/12/09 07:57:47;;;;;;;;;;;1.30;99.90;;;;;;5071372;28;20390;-81
2021/12/09 08:00:16;;;;;;;;;;;1.20;99.90;;;;;;5051229;28;19925;-78
2021/12/09 08:02:41;;;;;;;;;;;1.20;99.90;;;;;;5046236;28;19928;-81
2021/12/09 08:05:08;;;;;;;;;;;1.20;99.90;;;;;;5044193;28;19924;-78
2021/12/09 08:07:33;;;;;;;;;;;1.20;99.90;;;;;;5069215;28;19924;-78
2021/12/09 08:09:59;;;;;;;;;;;1.20;99.90;;;;;;5034330;28;20458;-79
2021/12/09 08:12:24;;;;;;;;;;;1.20;99.90;;;;;;5031981;28;20416;-79
2021/12/09 08:14:50;;;;;;;;;;;1.30;99.90;;;;;;5048072;28;19932;-79
2021/12/09 08:20:03;;;;;;;;;;;1.30;99.90;;;;;;5064875;28;20018;-80
2021/12/09 08:22:28;;;;;;;;;;;1.40;99.90;;;;;;5035584;28;20022;-80
2021/12/09 08:24:55;;;;;;;;;;;1.30;99.90;;;;;;5029271;28;19948;-78
2021/12/09 08:27:20;;;;;;;;;;;1.40;99.90;;;;;;5046915;28;20019;-79
2021/12/09 08:29:46;;;;;;;;;;;1.40;99.90;;;;;;5025829;28;20473;-77
2021/12/09 08:32:12;;;;;;;;;;;1.50;99.90;;;;;;5048742;28;19924;-78
2021/12/09 08:34:39;;;;;;;;;;;1.40;99.90;;;;;;5032273;28;19928;-79
2021/12/09 08:37:05;;;;;;;;;;;1.40;99.90;;;;;;5044784;28;19979;-78
2021/12/09 08:39:30;;;;;;;;;;;1.50;99.90;;;;;;5048257;28;19924;-79
2021/12/09 08:41:56;;;;;;;;;;;1.60;99.90;;;;;;5062399;28;19952;-78
2021/12/09 08:44:22;;;;;;;;;;;1.60;99.90;;;;;;5046872;28;19979;-79
2021/12/09 08:46:48;;;;;;;;;;;1.70;99.90;;;;;;5065657;28;19928;-80
2021/12/09 08:49:14;;;;;;;;;;;1.70;99.90;;;;;;5045635;28;19920;-79
2021/12/09 08:51:41;;;;;;;;;;;1.80;99.90;;;;;;5058564;28;19928;-80
2021/12/09 08:54:06;;;;;;;;;;;1.80;99.90;;;;;;5074905;28;20378;-80
2021/12/09 08:56:32;;;;;;;;;;;1.90;99.90;;;;;;5073008;28;19920;-79
2021/12/09 08:58:58;;;;;;;;;;;1.90;99.90;;;;;;5056575;28;19920;-80
2021/12/09 09:01:24;;;;;;;;;;;2.00;99.90;;;;;;5067974;28;20344;-80
2021/12/09 09:03:49;;;;;;;;;;;2.00;99.90;;;;;;5056554;28;20378;-80
2021/12/09 09:06:15;;;;;;;;;;;2.00;99.90;;;;;;5052788;28;19924;-81
2021/12/09 09:08:42;;;;;;;;;;;2.10;99.90;;;;;;5049719;28;19921;-79
2021/12/09 09:11:07;;;;;;;;;;;2.20;99.90;;;;;;5048587;28;19925;-80
2021/12/09 09:13:33;;;;;;;;;;;2.20;99.90;;;;;;5064866;28;19925;-80
2021/12/09 09:15:59;;;;;;;;;;;2.30;99.90;;;;;;5029271;28;19929;-80
2021/12/09 09:18:24;;;;;;;;;;;2.30;99.90;;;;;;5052972;28;20478;-80
2021/12/09 09:20:50;;;;;;;;;;;2.40;99.90;;;;;;5030427;28;20023;-80
2021/12/09 09:23:17;;;;;;;;;;;2.40;99.90;;;;;;5034845;28;19924;-80
2021/12/09 09:25:44;;;;;;;;;;;2.50;99.90;;;;;;5029230;28;19956;-81
2021/12/09 09:28:11;;;;;;;;;;;2.60;99.90;;;;;;5030146;28;20007;-80
2021/12/09 09:30:38;;;;;;;;;;;2.60;99.90;;;;;;5063384;28;19931;-80
2021/12/09 09:33:04;;;;;;;;;;;2.70;99.90;;;;;;5055503;28;20390;-80
2021/12/09 09:35:30;;;;;;;;;;;2.80;99.90;;;;;;5051655;28;20302;-80
2021/12/09 09:37:56;;;;;;;;;;;2.90;99.90;;;;;;5053873;28;19948;-80
2021/12/09 09:40:27;;;;;;;;;;;3.40;99.90;;;;;;5036805;28;20364;-80
2021/12/09 09:43:00;;;;;;;;;;;4.20;99.90;;;;;;5054265;28;19921;-80
2021/12/09 09:45:25;;;;;;;;;;;5.30;99.90;;;;;;5043193;28;19924;-80
2021/12/09 09:47:51;;;;;;;;;;;6.20;99.90;;;;;;5049533;28;19948;-81
2021/12/09 09:50:17;;;;;;;;;;;6.90;99.90;;;;;;5061840;28;19920;-80
2021/12/09 09:52:43;;;;;;;;;;;7.40;99.90;;;;;;5054157;28;20271;-81
2021/12/09 09:55:10;;;;;;;;;;;7.80;99.90;;;;;;5020188;28;20015;-81
2021/12/09 09:57:36;;;;;;;;;;;8.20;99.90;;;;;;5047980;28;19924;-81
2021/12/09 10:00:04;;;;;;;;;;;8.40;99.90;;;;;;5066478;28;19944;-81
2021/12/09 10:02:35;;;;;;;;;;;8.30;99.90;;;;;;5064461;28;19931;-82
2021/12/09 10:05:02;;;;;;;;;;;8.30;99.90;;;;;;5050920;28;19925;-81
2021/12/09 10:07:29;;;;;;;;;;;8.40;99.90;;;;;;5036584;28;20336;-81
2021/12/09 10:09:55;;;;;;;;;;;8.60;99.90;;;;;;5049748;28;20290;-81
2021/12/09 10:12:21;;;;;;;;;;;8.80;99.90;;;;;;5034772;28;19921;-82
2021/12/09 10:14:49;;;;;;;;;;;9.00;99.90;;;;;;5068647;28;19936;-81
2021/12/09 10:17:17;;;;;;;;;;;9.10;99.90;;;;;;5035770;28;19964;-81
2021/12/09 10:19:49;;;;;;;;;;;9.30;99.90;;;;;;5045713;28;20337;-82
2021/12/09 10:22:16;;;;;;;;;;;9.50;99.80;;;;;;5063647;28;19921;-80
2021/12/09 10:24:43;;;;;;;;;;;9.60;99.70;;;;;;5065353;28;19928;-81
2021/12/09 10:27:13;;;;;;;;;;;9.70;98.30;;;;;;5029199;28;19920;-82
2021/12/09 10:29:45;;;;;;;;;;;9.70;97.30;;;;;;5028089;28;20396;-82
2021/12/09 10:32:13;;;;;;;;;;;9.60;98.20;;;;;;5045289;28;19951;-82
2021/12/09 10:34:42;;;;;;;;;;;9.40;98.10;;;;;;5053522;28;19924;-81
2021/12/09 10:37:09;;;;;;;;;;;9.30;97.90;;;;;;5033005;28;19925;-80
2021/12/09 10:39:37;;;;;;;;;;;8.90;97.60;;;;;;5050941;28;19972;-81
2021/12/09 10:42:05;;;;;;;;;;;8.00;98.20;;;;;;5048161;28;19920;-82
2021/12/09 10:44:42;;;;;;;;;;;7.10;99.70;;;;;;5024385;28;19925;-82
2021/12/09 10:47:12;;;;;;;;;;;6.60;99.90;;;;;;5054922;28;19926;-82
2021/12/09 10:49:47;;;;;;;;;;;6.10;99.90;;;;;;5052788;28;19975;-81
2021/12/09 10:52:24;;;;;;;;;;;5.70;99.90;;;;;;5033042;28;19925;-81
2021/12/09 10:54:50;;;;;;;;;;;5.40;99.90;;;;;;5072872;28;19931;-81
2021/12/09 10:57:26;;;;;;;;;;;5.10;99.90;;;;;;5043808;28;20007;-81
2021/12/09 10:59:52;;;;;;;;;;;4.90;99.90;;;;;;5018297;28;19975;-81
2021/12/09 11:02:18;;;;;;;;;;;4.70;99.90;;;;;;5064334;28;19924;-81
2021/12/09 11:04:58;;;;;;;;;;;4.50;99.90;;;;;;5047372;28;19929;-82
2021/12/09 11:07:30;;;;;;;;;;;4.40;99.90;;;;;;5058645;28;19984;-81
2021/12/09 11:10:16;;;;;;;;;;;4.30;99.90;;;;;;5030519;28;19929;-80
2021/12/09 11:12:47;;;;;;;;;;;4.20;99.90;;;;;;5064457;28;20317;-81
2021/12/09 11:15:13;;;;;;;;;;;4.20;99.90;;;;;;5057570;28;20333;-81
2021/12/09 11:17:42;;;;;;;;;;;4.20;99.90;;;;;;5067687;28;19928;-75
2021/12/09 11:20:09;;;;;;;;;;;4.10;99.90;;;;;;5050418;28;20365;-81
2021/12/09 11:22:37;;;;;;;;;;;4.10;99.90;;;;;;5058198;28;20301;-80
2021/12/09 11:25:05;;;;;;;;;;;4.20;99.90;;;;;;5051859;28;19924;-81
2021/12/09 11:27:31;;;;;;;;;;;4.20;99.90;;;;;;5039231;28;20440;-80
2021/12/09 11:30:08;;;;;;;;;;;4.10;99.90;;;;;;5051074;28;19921;-81
2021/12/09 11:35:11;;;;;;;;;;;4.10;99.90;;;;;;5057357;28;20465;-81
2021/12/09 11:40:10;;;;;;;;;;;4.10;99.90;;;;;;5067784;28;20405;-81
2021/12/09 11:42:48;;;;;;;;;;;4.10;99.90;;;;;;5074624;28;19920;-81
2021/12/09 11:45:14;;;;;;;;;;;4.10;99.90;;;;;;5038710;28;19924;-80
2021/12/09 11:47:41;;;;;;;;;;;4.10;99.90;;;;;;5051903;28;19963;-79
2021/12/09 11:50:07;;;;;;;;;;;4.10;99.90;;;;;;5034558;28;20359;-81
2021/12/09 11:52:36;;;;;;;;;;;4.00;99.90;;;;;;5032623;28;19921;-81
2021/12/09 11:55:05;;;;;;;;;;;3.90;99.90;;;;;;5053264;28;19924;-81
2021/12/09 11:57:44;;;;;;;;;;;3.90;99.90;;;;;;5036897;28;19924;-81
2021/12/09 12:11:34;;;;;;;;;;;3.90;99.90;;;;;;5060782;28;19991;-81
2021/12/09 12:14:08;;;;;;;;;;;3.90;99.90;;;;;;5030039;28;19932;-80
2021/12/09 12:19:13;;;;;;;;;;;3.90;99.90;;;;;;5055822;28;19943;-80
2021/12/09 12:24:38;;;;;;;;;;;3.90;99.90;;;;;;5056934;28;19925;-81
2021/12/09 12:27:25;;;;;;;;;;;3.90;99.90;;;;;;5045803;28;19920;-80
2021/12/09 12:32:45;;;;;;;;;;;3.90;99.90;;;;;;5046366;28;19920;-81
2021/12/09 12:35:44;;;;;;;;;;;4.00;99.90;;;;;;5034891;28;19928;-80
2021/12/09 12:40:58;;;;;;;;;;;4.00;99.90;;;;;;5049261;28;19921;-80
2021/12/09 12:43:26;;;;;;;;;;;3.90;99.90;;;;;;5034805;28;19940;-80
2021/12/09 12:51:08;;;;;;;;;;;3.90;99.90;;;;;;5047562;28;20064;-81
2021/12/09 12:53:39;;;;;;;;;;;3.90;99.90;;;;;;5045055;28;19928;-79
2021/12/09 12:56:12;;;;;;;;;;;4.00;99.90;;;;;;5050248;28;20278;-80
2021/12/09 12:58:39;;;;;;;;;;;4.00;99.90;;;;;;5065661;28;19935;-80
2021/12/09 13:01:15;;;;;;;;;;;3.90;99.90;;;;;;5047317;28;20635;-81
2021/12/09 13:03:46;;;;;;;;;;;3.90;99.90;;;;;;5042610;28;19929;-80
2021/12/09 13:06:35;;;;;;;;;;;3.90;99.90;;;;;;5068196;28;19935;-80
2021/12/09 13:09:19;;;;;;;;;;;3.90;99.90;;;;;;5034251;28;19927;-80
2021/12/09 13:11:48;;;;;;;;;;;3.90;99.90;;;;;;5049224;28;19964;-80
2021/12/09 13:14:22;;;;;;;;;;;3.90;99.90;;;;;;5051026;28;19922;-79
2021/12/09 13:16:59;;;;;;;;;;;3.90;99.90;;;;;;5067390;28;19978;-79
2021/12/09 13:19:33;;;;;;;;;;;3.90;99.90;;;;;;5061707;28;19968;-79
2021/12/09 13:22:01;;;;;;;;;;;4.00;99.90;;;;;;5050118;28;19925;-79
2021/12/09 13:24:41;;;;;;;;;;;4.00;99.90;;;;;;5065014;28;19968;-80
2021/12/09 13:30:03;;;;;;;;;;;4.00;99.90;;;;;;5028625;28;19971;-79
2021/12/09 13:33:28;;;;;;;;;;;4.00;99.90;;;;;;5060461;28;19925;-78
2021/12/09 13:46:32;;;;;;;;;;;4.00;99.90;;;;;;5077808;28;20280;-79
2021/12/09 13:49:03;;;;;;;;;;;4.00;99.90;;;;;;5065338;28;19931;-80
2021/12/09 13:56:42;;;;;;;;;;;4.10;99.90;;;;;;5049880;28;19920;-80
2021/12/09 13:59:13;;;;;;;;;;;4.10;99.90;;;;;;5044387;28;20034;-81
2021/12/09 14:01:40;;;;;;;;;;;4.10;99.90;;;;;;5063785;28;20799;-80
2021/12/09 14:04:06;;;;;;;;;;;4.10;99.90;;;;;;5067103;28;20310;-81
2021/12/09 14:06:32;;;;;;;;;;;4.10;99.90;;;;;;5025418;28;19968;-81
2021/12/09 14:08:57;;;;;;;;;;;4.10;99.90;;;;;;5031460;28;20418;-80
2021/12/09 14:11:33;;;;;;;;;;;4.10;99.90;;;;;;5066941;28;19921;-81
2021/12/09 14:14:07;;;;;;;;;;;4.10;99.90;;;;;;5062098;28;19924;-80
2021/12/09 14:19:58;;;;;;;;;;;4.20;99.90;;;;;;5042048;28;19962;-80
2021/12/09 14:21:48;;;;;;;;;;;4.10;99.90;;;;;;5063910;28;19929;-80
2021/12/09 14:24:15;;;;;;;;;;;4.10;99.90;;;;;;5049218;28;19924;-80
2021/12/09 14:26:42;;;;;;;;;;;4.20;99.90;;;;;;5052247;28;20010;-80
2021/12/09 14:29:08;;;;;;;;;;;4.10;99.90;;;;;;5050641;28;19974;-79
2021/12/09 14:31:41;;;;;;;;;;;4.10;99.90;;;;;;5064384;28;19928;-80
2021/12/09 14:34:08;;;;;;;;;;;4.10;99.90;;;;;;5068027;28;19928;-79
2021/12/09 14:36:34;;;;;;;;;;;4.10;99.90;;;;;;5050302;28;19925;-80
2021/12/09 14:39:00;;;;;;;;;;;4.10;99.90;;;;;;5050735;28;19921;-80
2021/12/09 14:41:29;;;;;;;;;;;4.10;99.90;;;;;;5053809;28;20301;-80
2021/12/09 14:43:54;;;;;;;;;;;4.10;99.90;;;;;;5068445;28;20451;-80
2021/12/09 14:46:24;;;;;;;;;;;4.10;99.90;;;;;;5050593;28;19925;-80
2021/12/09 14:48:49;;;;;;;;;;;4.10;99.90;;;;;;5024812;28;19971;-80
2021/12/09 14:51:17;;;;;;;;;;;4.10;99.90;;;;;;5049207;28;19920;-80
2021/12/09 14:53:44;;;;;;;;;;;4.10;99.90;;;;;;5069273;28;19940;-80
2021/12/09 14:56:24;;;;;;;;;;;4.10;99.90;;;;;;5044722;28;19924;-80
2021/12/09 14:58:50;;;;;;;;;;;4.10;99.90;;;;;;5032619;28;20044;-80
2021/12/09 15:01:19;;;;;;;;;;;4.10;99.90;;;;;;5050802;28;19920;-80
2021/12/09 15:03:54;;;;;;;;;;;4.20;99.90;;;;;;5048754;28;19931;-80
2021/12/09 15:06:25;;;;;;;;;;;4.20;99.90;;;;;;5069374;28;19925;-80
2021/12/09 15:08:56;;;;;;;;;;;4.20;99.90;;;;;;5051347;28;19971;-80
2021/12/09 15:11:22;;;;;;;;;;;4.20;99.90;;;;;;5065780;28;19971;-80
2021/12/09 15:13:49;;;;;;;;;;;4.20;99.90;;;;;;5066590;28;19928;-79
2021/12/09 15:16:16;;;;;;;;;;;4.20;99.90;;;;;;5052049;28;19925;-80
2021/12/09 15:18:42;;;;;;;;;;;4.20;99.90;;;;;;5053202;28;20034;-80
2021/12/09 15:21:15;;;;;;;;;;;4.20;99.90;;;;;;5054602;28;20461;-80
2021/12/09 15:26:12;;;;;;;;;;;4.20;99.90;;;;;;5054648;28;19986;-80
2021/12/09 15:28:37;;;;;;;;;;;4.20;99.90;;;;;;5050353;28;20354;-79
2021/12/09 15:31:03;;;;;;;;;;;4.20;99.90;;;;;;5046121;28;20018;-79
2021/12/09 15:33:35;;;;;;;;;;;4.20;99.90;;;;;;5049055;28;19928;-80
2021/12/09 15:36:03;;;;;;;;;;;4.20;99.90;;;;;;5041844;28;19928;-80
2021/12/09 15:38:29;;;;;;;;;;;4.20;99.90;;;;;;5049083;28;20019;-80